Hill Air Force Base
KHIF : now visible

Airfield :











YOU CAN JOIN US ON...

 
LOGIN :

Register | Disclaimer

   EN    FR    IT 

 









Legend :    VFR   Marginal VFR   IFR   Intensive IFR   Very Intensive IFR
Visi :
Ceiling :
>= 8 km
>= 3000ft
5 to 8 km
1000 to 3000 ft
1500m to 5 km
500 to 1000 ft
800 to 1500m
200 to 500 ft
< 800m
< 200 ft
Symbols :   Thunderstorms  Fog  Heavy snow  Heavy precipitations  Wind > 20 kt






- Airport Elevation : 4789 ft


KHIF - Hill Air Force Base

CURRENT METAR :
  • 212055Z 10009KT 10SM -RA BKN050 OVC065 09/08 A2995 RMK AO2A SLP112 P0017 60034 T00910077 50000

EXPIRED METARs :
  • 211955Z 09007KT 2 1/2SM -RA SCT004 09/08 A2999 RMK AO2A RAB05 TSB28E51 SLP126 P0017 T00910083
  • 211951Z 10007KT 2 1/2SM -RA BKN004 09/08 A3000 RMK AO2A RAB05 TSB28E51 SLP129
  • 211946Z 09006KT 2 1/4SM -TSRA BKN005 09/08 A3000 RMK TWR VIS 1 1/4 RAB05 TSB28 SLP129
  • 211928Z VRB04KT 3SM -TSRA SCT005 BKN028 BKN035 OVC045 11/07 A3000 RMK RAB05 TSB27 PRESRR SLP127
  • 211912Z VRB05KT 7SM -RA FEW005 BKN030 OVC042 12/07 A2998 RMK RAB05 VCTS SLP117
  • 211905Z 34005KT 10SM -RA BKN030 OVC042 12/06 A2997 RMK AO2A RAB05 SLP113
  • 211855Z COR 34007KT 10SM BKN032 OVC042 12/06 A2996 RMK AO2A LTG DSNT SW SLP110 T01170062 COR 1901

TAF TAF KHIF
Valid from the 21 at 21:00 until the 23 at 03:00 UTC


212100Z 2121/2303 09010KT -RA 9999 BKN050 OVC060 QNH2991INS
BECMG 2200/2201 09012KT 6000 -SHRA VCTS BKN040CB OVC060 QNH2989INS
TEMPO 2202/2205 09010KT -TSRA OVC050CB
BECMG 2208/2209 32007KT 9999 -RA VCTS BKN060CB QNH2997INS
TEMPO 2209/2212 08010G25KT 6000 -TSRA BKN040CB OVC060
BECMG 2217/2218 27010G18KT 6000 -SHRA BKN040 QNH3010INS
BECMG 2302/2303 06006KT 9999 NSW FEW070 QNH3015INS TX15/2123Z TN08/2213Z
KZLC FIR / North America



MET'MAP, your aeronautical weather chart ! - Copyright ORBIFLY December 2007 - Disclaimer

ORBIFLY MET'MAP TEAM :

Programming & Development : Alexandra Zaïnal
Original concept : Baudouin d'Aumeries
Technical & hardware support : Manuel Goepfert
Assistance : Marc-Olivier Méhu




SOURCES & CREDITS :

   NOAA       Earth
Advisory